createdAt,value
2023-06-29T00:00:29.677Z,11.57
2023-06-29T00:02:56.715Z,11.40
2023-06-29T00:05:23.766Z,6.50
2023-06-29T00:07:50.849Z,6.87
2023-06-29T00:10:17.972Z,5.93
2023-06-29T00:12:44.983Z,3.80
2023-06-29T00:15:12.097Z,3.70
2023-06-29T00:17:39.291Z,2.90
2023-06-29T00:20:11.555Z,2.50
2023-06-29T00:22:41.786Z,2.73
2023-06-29T00:25:10.191Z,2.37
2023-06-29T00:27:37.475Z,2.17
2023-06-29T00:30:04.731Z,2.70
2023-06-29T00:32:31.773Z,3.10
2023-06-29T00:34:58.749Z,3.87
2023-06-29T00:37:26.251Z,3.07
2023-06-29T00:39:54.077Z,4.10
2023-06-29T00:42:21.073Z,3.03
2023-06-29T00:44:49.131Z,3.47
2023-06-29T00:47:16.405Z,3.47
2023-06-29T00:49:43.432Z,3.00
2023-06-29T00:52:11.077Z,3.40
2023-06-29T00:54:39.075Z,3.63
2023-06-29T00:57:10.087Z,3.60
2023-06-29T00:59:37.487Z,2.43
2023-06-29T01:02:05.058Z,2.90
2023-06-29T01:04:34.549Z,3.17
2023-06-29T01:07:16.917Z,2.87
2023-06-29T01:09:45.894Z,2.80
2023-06-29T01:12:17.161Z,3.10
2023-06-29T01:14:46.084Z,3.30
2023-06-29T01:17:16.582Z,3.00
2023-06-29T01:19:46.439Z,3.20
2023-06-29T01:22:21.941Z,3.93
2023-06-29T01:24:49.160Z,2.40
2023-06-29T01:27:16.660Z,3.77
2023-06-29T01:29:43.792Z,3.60
2023-06-29T01:32:11.328Z,3.43
2023-06-29T01:34:39.308Z,2.97
2023-06-29T01:37:18.190Z,3.33
2023-06-29T01:39:54.314Z,3.30
2023-06-29T01:42:25.939Z,4.30
2023-06-29T01:47:46.211Z,3.23
2023-06-29T01:50:14.501Z,3.40
2023-06-29T01:52:42.033Z,2.00
2023-06-29T01:55:10.451Z,2.33
2023-06-29T01:57:39.981Z,2.17
2023-06-29T02:00:07.713Z,2.27
2023-06-29T02:02:41.034Z,2.53
2023-06-29T02:05:08.938Z,2.13
2023-06-29T02:07:36.064Z,3.87
2023-06-29T02:10:03.761Z,3.10
2023-06-29T02:12:31.713Z,2.80
2023-06-29T02:14:58.725Z,2.73
2023-06-29T02:17:25.702Z,2.60
2023-06-29T02:19:52.768Z,3.20
2023-06-29T02:22:19.771Z,2.33
2023-06-29T02:24:51.444Z,2.77
2023-06-29T02:27:18.399Z,2.60
2023-06-29T02:29:45.501Z,3.13
2023-06-29T02:32:12.461Z,3.10
2023-06-29T02:34:41.665Z,2.70
2023-06-29T02:37:08.681Z,3.40
2023-06-29T02:39:36.750Z,2.70
2023-06-29T02:42:03.819Z,2.67
2023-06-29T02:44:30.798Z,4.10
2023-06-29T02:47:00.131Z,3.40
2023-06-29T02:49:29.157Z,3.40
2023-06-29T02:51:56.145Z,3.80
2023-06-29T02:54:23.118Z,3.90
2023-06-29T02:56:53.298Z,4.40
2023-06-29T02:59:20.291Z,4.23
2023-06-29T03:01:47.473Z,4.40
2023-06-29T03:04:14.491Z,3.90
2023-06-29T03:06:41.601Z,4.20
2023-06-29T03:09:08.600Z,2.80
2023-06-29T03:11:35.603Z,3.67
2023-06-29T03:14:02.625Z,3.10
2023-06-29T03:16:29.713Z,2.70
2023-06-29T03:18:56.713Z,2.50
2023-06-29T03:21:23.766Z,2.90
2023-06-29T03:23:50.824Z,2.90
2023-06-29T03:26:17.830Z,3.07
2023-06-29T03:28:44.833Z,3.30
2023-06-29T03:31:11.829Z,3.67
2023-06-29T03:33:38.885Z,2.70
2023-06-29T03:36:06.554Z,2.13
2023-06-29T03:38:33.578Z,3.10
2023-06-29T03:41:00.521Z,2.77
2023-06-29T03:43:27.494Z,2.50
2023-06-29T03:45:54.491Z,2.67
2023-06-29T03:48:23.391Z,2.40
2023-06-29T03:50:50.791Z,2.03
2023-06-29T03:53:17.845Z,2.73
2023-06-29T03:55:45.257Z,2.70
2023-06-29T03:58:12.638Z,2.10
2023-06-29T04:00:39.646Z,2.33
2023-06-29T04:03:07.041Z,2.33
2023-06-29T04:05:34.112Z,2.70
2023-06-29T04:08:06.417Z,2.60
2023-06-29T04:10:34.521Z,2.20
2023-06-29T04:13:02.202Z,2.10
2023-06-29T04:15:29.250Z,2.90
2023-06-29T04:17:56.389Z,3.20
2023-06-29T04:20:23.450Z,3.17
2023-06-29T04:22:50.528Z,3.10
2023-06-29T04:25:17.612Z,2.43
2023-06-29T04:27:45.053Z,2.50
2023-06-29T04:30:12.588Z,2.23
2023-06-29T04:32:40.480Z,2.13
2023-06-29T04:35:10.148Z,2.73
2023-06-29T04:37:41.976Z,2.47
2023-06-29T04:40:11.072Z,1.83
2023-06-29T04:42:45.144Z,1.97
2023-06-29T04:45:20.407Z,2.33
2023-06-29T04:47:50.815Z,2.13
2023-06-29T04:50:27.566Z,2.43
2023-06-29T04:52:59.633Z,1.90
2023-06-29T04:55:27.039Z,2.23
2023-06-29T04:57:54.064Z,3.00
2023-06-29T05:00:21.370Z,1.90
2023-06-29T05:02:48.602Z,1.77
2023-06-29T05:05:15.720Z,1.73
2023-06-29T05:07:43.165Z,2.23
2023-06-29T05:10:10.455Z,2.40
2023-06-29T05:12:37.445Z,2.43
2023-06-29T05:15:04.774Z,2.40
2023-06-29T05:17:33.737Z,2.00
2023-06-29T05:20:04.954Z,1.83
2023-06-29T05:22:33.072Z,2.50
2023-06-29T05:25:00.068Z,2.90
2023-06-29T05:27:27.014Z,1.90
2023-06-29T05:29:53.994Z,2.00
2023-06-29T05:32:20.995Z,2.77
2023-06-29T05:34:47.963Z,2.20
2023-06-29T05:37:15.000Z,2.43
2023-06-29T05:39:41.959Z,1.83
2023-06-29T05:42:09.087Z,2.33
2023-06-29T05:44:36.141Z,2.43
2023-06-29T05:47:03.114Z,2.07
2023-06-29T05:49:30.173Z,2.53
2023-06-29T05:51:57.156Z,1.97
2023-06-29T05:54:24.151Z,2.40
2023-06-29T05:56:51.131Z,1.93
2023-06-29T05:59:18.094Z,2.13
2023-06-29T06:01:45.142Z,2.13
2023-06-29T06:04:12.185Z,1.60
2023-06-29T06:06:40.455Z,2.27
2023-06-29T06:09:07.726Z,1.60
2023-06-29T06:11:34.826Z,1.53
2023-06-29T06:14:01.821Z,2.73
2023-06-29T06:16:28.931Z,3.00
2023-06-29T06:18:55.946Z,1.93
2023-06-29T06:21:25.063Z,2.17
2023-06-29T06:23:55.233Z,1.97
2023-06-29T06:26:22.272Z,2.40
2023-06-29T06:28:49.233Z,2.03
2023-06-29T06:31:32.117Z,2.30
2023-06-29T06:34:01.032Z,2.03
2023-06-29T06:36:31.057Z,2.00
2023-06-29T06:38:58.069Z,2.17
2023-06-29T06:41:25.337Z,2.70
2023-06-29T06:43:52.828Z,2.10
2023-06-29T06:46:20.070Z,1.57
2023-06-29T06:48:49.354Z,1.57
2023-06-29T06:51:16.660Z,1.70
2023-06-29T06:53:43.832Z,1.80
2023-06-29T06:56:11.131Z,1.50
2023-06-29T06:58:38.200Z,1.63
2023-06-29T07:01:05.394Z,2.10
2023-06-29T07:03:32.472Z,1.50
2023-06-29T07:05:59.709Z,1.60
2023-06-29T07:08:26.688Z,1.90
2023-06-29T07:10:53.944Z,1.90
2023-06-29T07:13:21.079Z,2.00
2023-06-29T07:15:48.353Z,1.80
2023-06-29T07:18:15.492Z,1.57
2023-06-29T07:25:44.502Z,1.90
2023-06-29T07:28:11.711Z,2.10
2023-06-29T07:30:38.764Z,2.17
2023-06-29T07:33:05.932Z,3.13
2023-06-29T07:35:33.027Z,2.23
2023-06-29T07:38:00.082Z,1.40
2023-06-29T07:40:27.078Z,1.47
2023-06-29T07:42:54.158Z,1.80
2023-06-29T07:45:21.228Z,1.97
2023-06-29T07:47:48.736Z,1.83
2023-06-29T07:50:16.080Z,1.90
2023-06-29T07:52:43.496Z,1.00
2023-06-29T07:55:10.644Z,3.17
2023-06-29T08:00:09.598Z,1.63
2023-06-29T08:02:50.766Z,1.50
2023-06-29T08:07:48.196Z,1.60
2023-06-29T08:10:15.513Z,1.10
2023-06-29T08:12:42.784Z,1.50
2023-06-29T08:15:10.559Z,1.77
2023-06-29T08:17:37.649Z,1.70
2023-06-29T08:20:07.223Z,1.63
2023-06-29T08:22:34.225Z,1.30
2023-06-29T08:25:01.222Z,1.43
2023-06-29T08:27:28.218Z,1.70
2023-06-29T08:29:56.304Z,1.57
2023-06-29T08:32:23.397Z,1.20
2023-06-29T08:34:50.599Z,1.50
2023-06-29T08:37:17.648Z,1.50
2023-06-29T08:39:44.741Z,1.67
2023-06-29T08:42:11.745Z,1.50
2023-06-29T08:44:38.779Z,1.30
2023-06-29T08:47:06.919Z,2.10
2023-06-29T08:49:37.712Z,1.50
2023-06-29T08:52:06.040Z,1.43
2023-06-29T08:54:33.605Z,1.97
2023-06-29T08:57:02.332Z,1.70
2023-06-29T08:59:29.995Z,1.03
2023-06-29T09:02:00.207Z,1.20
2023-06-29T09:04:27.597Z,1.27
2023-06-29T09:06:54.664Z,1.40
2023-06-29T09:09:22.824Z,1.50
2023-06-29T09:11:50.222Z,1.70
2023-06-29T09:14:17.261Z,1.30
2023-06-29T09:17:02.506Z,1.70
2023-06-29T09:19:30.995Z,1.27
2023-06-29T09:21:59.498Z,1.00
2023-06-29T09:24:30.610Z,1.17
2023-06-29T09:26:57.766Z,1.10
2023-06-29T09:29:24.841Z,1.30
2023-06-29T09:31:59.052Z,1.50
2023-06-29T09:34:29.127Z,1.37
2023-06-29T09:36:57.103Z,1.50
2023-06-29T09:39:24.497Z,1.20
2023-06-29T09:41:55.249Z,1.87
2023-06-29T09:44:25.042Z,1.90
2023-06-29T09:49:24.641Z,1.20
2023-06-29T09:52:04.303Z,1.50
2023-06-29T09:54:38.204Z,1.20
2023-06-29T09:57:05.490Z,1.10
2023-06-29T09:59:32.734Z,1.47
2023-06-29T10:01:59.809Z,1.20
2023-06-29T10:04:26.833Z,1.13
2023-06-29T10:07:09.891Z,1.60
2023-06-29T10:09:39.227Z,2.40
2023-06-29T10:12:08.615Z,1.50
2023-06-29T10:14:37.706Z,1.57
2023-06-29T10:17:11.953Z,1.10
2023-06-29T10:19:42.760Z,1.00
2023-06-29T10:22:17.719Z,1.20
2023-06-29T10:24:52.512Z,1.20
2023-06-29T10:27:21.347Z,1.23
2023-06-29T10:29:50.424Z,1.63
2023-06-29T10:32:38.018Z,1.70
2023-06-29T10:35:13.017Z,1.23
2023-06-29T10:37:43.984Z,1.20
2023-06-29T10:40:16.226Z,1.17
2023-06-29T10:42:43.312Z,1.40
2023-06-29T10:45:19.489Z,1.20
2023-06-29T10:48:00.282Z,1.30
2023-06-29T10:50:38.492Z,1.17
2023-06-29T10:53:08.314Z,1.57
2023-06-29T10:55:44.410Z,1.27
2023-06-29T10:58:31.467Z,1.20
2023-06-29T11:00:58.682Z,1.23
2023-06-29T11:03:25.860Z,1.30
2023-06-29T11:05:54.628Z,1.53
2023-06-29T11:08:23.554Z,1.30
2023-06-29T11:10:52.132Z,1.60
2023-06-29T11:13:20.602Z,1.57
2023-06-29T11:15:57.881Z,1.40
2023-06-29T11:18:25.028Z,1.50
2023-06-29T11:20:52.131Z,1.17
2023-06-29T11:23:19.187Z,2.00
2023-06-29T11:25:46.636Z,0.90
2023-06-29T11:28:16.912Z,1.27
2023-06-29T11:30:44.393Z,1.60
2023-06-29T11:33:24.305Z,1.90
2023-06-29T11:36:01.229Z,1.47
2023-06-29T11:38:28.351Z,1.37
2023-06-29T11:41:06.242Z,1.47
2023-06-29T11:43:33.875Z,1.00
2023-06-29T11:46:01.742Z,1.27
2023-06-29T11:48:30.988Z,1.00
2023-06-29T11:51:02.084Z,1.77
2023-06-29T11:53:29.891Z,1.23
2023-06-29T11:55:57.686Z,1.10
2023-06-29T11:58:32.933Z,1.10
2023-06-29T12:00:59.870Z,1.30
2023-06-29T12:03:27.947Z,1.03
2023-06-29T12:06:00.476Z,1.50
2023-06-29T12:08:37.359Z,1.10
2023-06-29T12:11:05.135Z,0.90
2023-06-29T12:13:32.154Z,0.90
2023-06-29T12:18:36.854Z,1.90
2023-06-29T12:21:05.124Z,1.10
2023-06-29T12:23:32.410Z,1.20
2023-06-29T12:25:59.365Z,1.10
2023-06-29T12:28:26.453Z,1.07
2023-06-29T12:30:53.685Z,1.30
2023-06-29T12:33:20.990Z,1.10
2023-06-29T12:35:48.512Z,1.00
2023-06-29T12:38:15.715Z,1.13
2023-06-29T12:40:42.631Z,1.00
2023-06-29T12:43:09.635Z,0.90
2023-06-29T12:45:36.825Z,1.10
2023-06-29T12:48:05.052Z,1.30
2023-06-29T12:50:32.311Z,1.10
2023-06-29T12:52:59.460Z,1.47
2023-06-29T12:55:26.501Z,1.20
2023-06-29T12:57:53.496Z,1.07
2023-06-29T13:00:20.998Z,0.80
2023-06-29T13:02:48.773Z,0.90
2023-06-29T13:05:16.127Z,1.20
2023-06-29T13:07:44.206Z,1.00
2023-06-29T13:10:13.201Z,1.00
2023-06-29T13:12:42.102Z,1.10
2023-06-29T13:15:09.807Z,0.90
2023-06-29T13:17:36.782Z,1.00
2023-06-29T13:20:04.373Z,0.90
2023-06-29T13:22:32.429Z,0.80
2023-06-29T13:25:01.030Z,0.80
2023-06-29T13:27:28.264Z,0.90
2023-06-29T13:29:55.346Z,1.03
2023-06-29T13:32:22.494Z,0.80
2023-06-29T13:34:49.502Z,1.00
2023-06-29T13:37:16.807Z,1.17
2023-06-29T13:39:46.713Z,0.70
2023-06-29T13:42:16.702Z,0.83
2023-06-29T13:44:44.622Z,0.80
2023-06-29T13:47:18.531Z,0.80
2023-06-29T13:49:46.043Z,1.00
2023-06-29T13:52:13.207Z,0.87
2023-06-29T13:54:41.184Z,0.83
2023-06-29T13:57:08.515Z,0.90
2023-06-29T13:59:35.648Z,1.00
2023-06-29T14:02:05.485Z,0.80
2023-06-29T14:04:32.560Z,1.57
2023-06-29T14:06:59.588Z,1.00
2023-06-29T14:09:28.590Z,0.80
2023-06-29T14:11:55.659Z,1.10
2023-06-29T14:14:23.178Z,0.83
2023-06-29T14:16:50.317Z,0.80
2023-06-29T14:19:17.383Z,1.00
2023-06-29T14:21:44.902Z,0.80
2023-06-29T14:24:11.966Z,0.80
2023-06-29T14:26:39.116Z,1.10
2023-06-29T14:29:06.190Z,0.93
2023-06-29T14:31:33.287Z,0.90
2023-06-29T14:34:00.935Z,0.83
2023-06-29T14:36:28.252Z,0.97
2023-06-29T14:38:55.261Z,0.80
2023-06-29T14:41:22.380Z,1.13
2023-06-29T14:43:49.456Z,1.10
2023-06-29T14:46:16.632Z,0.90
2023-06-29T14:48:44.584Z,1.20
2023-06-29T14:51:11.721Z,1.10
2023-06-29T14:53:38.761Z,1.03
2023-06-29T14:56:07.425Z,1.07
2023-06-29T14:58:34.914Z,1.07
2023-06-29T15:01:02.221Z,1.03
2023-06-29T15:03:29.598Z,1.10
2023-06-29T15:05:57.318Z,1.03
2023-06-29T15:08:24.460Z,1.00
2023-06-29T15:10:51.554Z,1.03
2023-06-29T15:13:18.672Z,1.07
2023-06-29T15:15:47.464Z,1.33
2023-06-29T15:18:15.012Z,1.10
2023-06-29T15:20:42.193Z,0.80
2023-06-29T15:23:09.340Z,0.90
2023-06-29T15:25:37.901Z,0.90
2023-06-29T15:28:07.141Z,0.80
2023-06-29T15:30:47.192Z,0.87
2023-06-29T15:33:18.921Z,0.70
2023-06-29T15:35:46.235Z,0.90
2023-06-29T15:38:13.712Z,0.97
2023-06-29T15:40:41.420Z,0.87
2023-06-29T15:43:08.482Z,0.90
2023-06-29T15:45:35.833Z,1.00
2023-06-29T15:48:02.863Z,1.10
2023-06-29T15:50:29.972Z,1.20
2023-06-29T15:52:57.041Z,0.80
2023-06-29T15:55:24.033Z,0.83
2023-06-29T15:57:51.083Z,0.80
2023-06-29T16:00:18.860Z,1.03
2023-06-29T16:02:45.899Z,1.03
2023-06-29T16:05:13.076Z,0.83
2023-06-29T16:07:40.203Z,1.10
2023-06-29T16:10:08.449Z,0.90
2023-06-29T16:12:36.140Z,0.90
2023-06-29T16:15:03.266Z,1.30
2023-06-29T16:17:30.732Z,1.00
2023-06-29T16:19:57.914Z,1.10
2023-06-29T16:22:25.138Z,1.00
2023-06-29T16:24:52.221Z,0.90
2023-06-29T16:27:19.329Z,1.30
2023-06-29T16:29:46.298Z,1.03
2023-06-29T16:32:13.329Z,1.10
2023-06-29T16:34:40.514Z,1.03
2023-06-29T16:37:10.119Z,1.10
2023-06-29T16:39:37.485Z,1.80
2023-06-29T16:42:04.838Z,1.23
2023-06-29T16:44:31.865Z,1.90
2023-06-29T16:46:58.952Z,1.40
2023-06-29T16:49:27.007Z,1.23
2023-06-29T16:51:54.850Z,1.40
2023-06-29T16:54:22.472Z,1.30
2023-06-29T16:56:49.652Z,1.47
2023-06-29T16:59:16.651Z,1.33
2023-06-29T17:01:43.689Z,1.50
2023-06-29T17:04:10.810Z,1.30
2023-06-29T17:06:38.724Z,1.10
2023-06-29T17:09:05.763Z,1.50
2023-06-29T17:11:32.697Z,1.37
2023-06-29T17:14:00.637Z,1.10
2023-06-29T17:16:27.879Z,1.27
2023-06-29T17:18:54.997Z,1.20
2023-06-29T17:21:22.162Z,1.07
2023-06-29T17:23:53.574Z,1.10
2023-06-29T17:26:21.005Z,1.20
2023-06-29T17:28:48.062Z,0.80
2023-06-29T17:31:15.150Z,0.93
2023-06-29T17:33:54.248Z,0.97
2023-06-29T17:36:23.909Z,0.93
2023-06-29T17:38:51.372Z,1.20
2023-06-29T17:41:18.396Z,1.17
2023-06-29T17:43:45.651Z,1.00
2023-06-29T17:46:14.049Z,1.10
2023-06-29T17:48:41.103Z,1.40
2023-06-29T17:51:19.285Z,1.63
2023-06-29T17:53:47.370Z,1.00
2023-06-29T17:56:15.757Z,1.20
2023-06-29T17:58:46.670Z,1.13
2023-06-29T18:01:14.726Z,1.00
2023-06-29T18:03:42.441Z,1.23
2023-06-29T18:06:10.516Z,1.13
2023-06-29T18:08:37.554Z,2.00
2023-06-29T18:11:04.710Z,1.20
2023-06-29T18:13:31.698Z,1.30
2023-06-29T18:15:58.777Z,1.40
2023-06-29T18:18:25.758Z,1.30
2023-06-29T18:20:52.845Z,1.10
2023-06-29T18:23:20.015Z,1.17
2023-06-29T18:25:47.288Z,1.43
2023-06-29T18:28:14.569Z,1.60
2023-06-29T18:30:41.743Z,1.30
2023-06-29T18:33:08.786Z,1.47
2023-06-29T18:35:35.843Z,1.50
2023-06-29T18:38:02.953Z,1.77
2023-06-29T18:40:30.421Z,1.60
2023-06-29T18:42:59.314Z,1.90
2023-06-29T18:45:29.958Z,2.43
2023-06-29T18:47:57.717Z,1.80
2023-06-29T18:50:24.860Z,1.47
2023-06-29T18:52:52.208Z,2.60
2023-06-29T18:55:19.189Z,2.37
2023-06-29T18:57:46.189Z,1.77
2023-06-29T19:00:13.768Z,2.30
2023-06-29T19:02:43.303Z,2.70
2023-06-29T19:05:11.750Z,2.23
2023-06-29T19:07:38.831Z,2.80
2023-06-29T19:10:09.787Z,3.30
2023-06-29T19:12:36.930Z,4.17
2023-06-29T19:15:04.903Z,3.80
2023-06-29T19:17:33.809Z,3.50
2023-06-29T19:20:01.021Z,3.10
2023-06-29T19:22:28.157Z,2.80
2023-06-29T19:24:55.202Z,3.67
2023-06-29T19:27:22.345Z,4.70
2023-06-29T19:29:49.368Z,4.43
2023-06-29T19:32:16.618Z,4.07
2023-06-29T19:34:44.089Z,3.23
2023-06-29T19:37:12.077Z,2.97
2023-06-29T19:39:39.544Z,2.20
2023-06-29T19:42:06.785Z,3.20
2023-06-29T19:44:34.125Z,12.83
2023-06-29T19:47:01.247Z,4.83
2023-06-29T19:49:28.184Z,2.50
2023-06-29T19:51:58.777Z,1.70
2023-06-29T19:54:26.562Z,2.80
2023-06-29T19:56:53.765Z,2.80
2023-06-29T19:59:20.868Z,2.47
2023-06-29T20:01:48.112Z,2.30
2023-06-29T20:04:15.314Z,3.37
2023-06-29T20:06:42.754Z,2.63
2023-06-29T20:09:09.820Z,2.70
2023-06-29T20:11:36.938Z,3.27
2023-06-29T20:14:04.030Z,2.87
2023-06-29T20:16:31.267Z,3.20
2023-06-29T20:18:58.391Z,2.30
2023-06-29T20:21:25.329Z,2.03
2023-06-29T20:23:52.414Z,2.60
2023-06-29T20:26:20.335Z,2.30
2023-06-29T20:28:47.592Z,3.10
2023-06-29T20:31:14.746Z,2.30
2023-06-29T20:33:41.829Z,2.90
2023-06-29T20:36:08.886Z,2.30
2023-06-29T20:38:36.165Z,2.23
2023-06-29T20:41:03.307Z,2.30
2023-06-29T20:43:30.722Z,2.30
2023-06-29T20:45:57.832Z,2.30
2023-06-29T20:48:25.286Z,3.03
2023-06-29T20:51:03.722Z,3.83
2023-06-29T20:53:35.886Z,4.73
2023-06-29T20:56:03.269Z,4.30
2023-06-29T20:58:30.231Z,5.17
2023-06-29T21:00:58.937Z,5.03
2023-06-29T21:03:26.450Z,4.10
2023-06-29T21:05:53.873Z,4.73
2023-06-29T21:08:21.467Z,3.53
2023-06-29T21:10:48.446Z,4.47
2023-06-29T21:13:15.736Z,3.80
2023-06-29T21:15:42.780Z,3.57
2023-06-29T21:18:10.132Z,4.63
2023-06-29T21:20:37.341Z,4.07
2023-06-29T21:23:04.403Z,3.90
2023-06-29T21:25:31.669Z,3.87
2023-06-29T21:27:58.687Z,3.53
2023-06-29T21:30:28.290Z,3.20
2023-06-29T21:32:55.549Z,3.40
2023-06-29T21:35:22.950Z,3.47
2023-06-29T21:37:50.160Z,4.53
2023-06-29T21:40:17.076Z,4.80
2023-06-29T21:42:44.733Z,6.60
2023-06-29T21:45:12.107Z,7.00
2023-06-29T21:47:39.293Z,6.83
2023-06-29T21:50:07.013Z,6.50
2023-06-29T21:52:34.383Z,5.93
2023-06-29T21:55:01.374Z,8.70
2023-06-29T21:57:28.304Z,6.53
2023-06-29T21:59:55.292Z,5.30
2023-06-29T22:02:22.275Z,5.50
2023-06-29T22:04:49.242Z,5.30
2023-06-29T22:07:17.187Z,4.80
2023-06-29T22:09:44.545Z,4.23
2023-06-29T22:12:11.951Z,4.27
2023-06-29T22:14:39.122Z,4.67
2023-06-29T22:17:07.352Z,5.50
2023-06-29T22:19:37.986Z,4.70
2023-06-29T22:22:07.797Z,4.63
2023-06-29T22:24:34.814Z,5.13
2023-06-29T22:27:01.870Z,5.60
2023-06-29T22:29:28.867Z,4.53
2023-06-29T22:31:55.914Z,4.47
2023-06-29T22:34:23.069Z,4.37
2023-06-29T22:36:50.149Z,3.73
2023-06-29T22:39:17.110Z,4.40
2023-06-29T22:41:44.053Z,4.27
2023-06-29T22:44:11.006Z,3.70
2023-06-29T22:46:38.184Z,4.73
2023-06-29T22:49:05.237Z,5.40
2023-06-29T22:51:33.231Z,3.60
2023-06-29T22:54:01.327Z,4.37
2023-06-29T22:56:28.403Z,3.37
2023-06-29T22:59:12.336Z,4.53
2023-06-29T23:01:39.705Z,4.00
2023-06-29T23:04:08.128Z,3.83
2023-06-29T23:06:40.064Z,3.63
2023-06-29T23:09:08.964Z,3.63
2023-06-29T23:11:40.821Z,4.10
2023-06-29T23:14:15.273Z,3.73
2023-06-29T23:16:43.126Z,4.07
2023-06-29T23:19:10.321Z,4.20
2023-06-29T23:21:37.991Z,2.73
2023-06-29T23:24:06.793Z,4.43
2023-06-29T23:26:33.830Z,3.30
2023-06-29T23:29:00.940Z,4.17
2023-06-29T23:31:29.189Z,3.07
2023-06-29T23:33:56.300Z,2.97
2023-06-29T23:36:23.627Z,3.37
2023-06-29T23:38:50.941Z,3.07
2023-06-29T23:41:19.256Z,2.57
2023-06-29T23:43:46.849Z,3.60
2023-06-29T23:46:14.227Z,3.40
2023-06-29T23:48:42.233Z,3.10
2023-06-29T23:51:10.267Z,3.40
2023-06-29T23:53:37.908Z,3.07
2023-06-29T23:56:05.794Z,3.00
2023-06-29T23:58:33.396Z,2.90
